createdAt,value
2022-10-24T00:02:30.894Z,3.90
2022-10-24T00:05:19.475Z,4.18
2022-10-24T00:08:07.872Z,4.20
2022-10-24T00:10:56.164Z,4.30
2022-10-24T00:13:44.781Z,4.10
2022-10-24T00:16:33.265Z,3.90
2022-10-24T00:19:22.944Z,3.50
2022-10-24T00:22:11.225Z,4.28
2022-10-24T00:24:59.766Z,3.60
2022-10-24T00:27:48.213Z,4.45
2022-10-24T00:30:36.775Z,4.05
2022-10-24T00:33:26.269Z,3.88
2022-10-24T00:36:18.841Z,3.90
2022-10-24T00:39:07.461Z,3.65
2022-10-24T00:41:58.882Z,4.07
2022-10-24T00:44:48.182Z,3.92
2022-10-24T00:47:36.833Z,4.10
2022-10-24T00:50:25.416Z,4.28
2022-10-24T00:53:16.259Z,4.13
2022-10-24T00:56:06.483Z,4.13
2022-10-24T00:58:55.884Z,3.97
2022-10-24T01:01:46.347Z,3.75
2022-10-24T01:04:34.782Z,3.78
2022-10-24T01:07:39.251Z,4.18
2022-10-24T01:10:39.249Z,4.35
2022-10-24T01:13:36.736Z,4.50
2022-10-24T01:16:31.180Z,3.92
2022-10-24T01:19:36.835Z,4.00
2022-10-24T01:22:30.039Z,4.38
2022-10-24T01:25:26.306Z,4.50
2022-10-24T01:28:18.829Z,5.10
2022-10-24T01:31:13.558Z,4.60
2022-10-24T01:34:08.010Z,4.70
2022-10-24T01:37:01.903Z,5.70
2022-10-24T01:39:54.367Z,5.18
2022-10-24T01:42:44.122Z,4.70
2022-10-24T01:45:36.534Z,5.10
2022-10-24T01:48:28.115Z,5.00
2022-10-24T01:51:19.405Z,5.03
2022-10-24T01:54:09.992Z,5.65
2022-10-24T01:56:58.325Z,4.95
2022-10-24T01:59:49.030Z,5.07
2022-10-24T02:02:42.872Z,5.65
2022-10-24T02:05:37.616Z,5.80
2022-10-24T02:08:31.355Z,6.13
2022-10-24T02:11:19.797Z,4.63
2022-10-24T02:14:12.130Z,5.82
2022-10-24T02:17:01.660Z,5.78
2022-10-24T02:19:50.720Z,5.50
2022-10-24T02:22:47.619Z,5.47
2022-10-24T02:25:38.624Z,6.00
2022-10-24T02:31:21.902Z,5.15
2022-10-24T02:37:07.411Z,5.00
2022-10-24T02:39:58.820Z,5.88
2022-10-24T02:42:50.427Z,6.07
2022-10-24T02:45:39.746Z,5.82
2022-10-24T02:48:31.191Z,5.20
2022-10-24T02:51:23.152Z,5.40
2022-10-24T02:54:11.487Z,5.78
2022-10-24T02:57:03.260Z,5.65
2022-10-24T02:59:51.532Z,5.63
2022-10-24T03:02:39.902Z,5.75
2022-10-24T03:05:28.342Z,5.60
2022-10-24T03:08:16.804Z,5.22
2022-10-24T03:11:05.183Z,5.57
2022-10-24T03:13:54.844Z,5.70
2022-10-24T03:16:43.194Z,4.95
2022-10-24T03:19:31.508Z,5.40
2022-10-24T03:22:19.845Z,5.22
2022-10-24T03:25:08.717Z,5.30
2022-10-24T03:27:57.048Z,4.80
2022-10-24T03:30:46.756Z,4.95
2022-10-24T03:33:35.377Z,4.90
2022-10-24T03:36:23.738Z,5.53
2022-10-24T03:39:12.071Z,5.00
2022-10-24T03:42:00.395Z,4.72
2022-10-24T03:44:48.708Z,4.50
2022-10-24T03:47:38.809Z,4.90
2022-10-24T03:50:27.520Z,4.27
2022-10-24T03:53:16.068Z,4.50
2022-10-24T03:56:04.842Z,4.97
2022-10-24T03:58:53.404Z,4.72
2022-10-24T04:01:41.998Z,4.55
2022-10-24T04:04:32.262Z,4.40
2022-10-24T04:07:20.583Z,4.57
2022-10-24T04:10:09.731Z,4.40
2022-10-24T04:12:58.164Z,4.35
2022-10-24T04:15:46.497Z,3.80
2022-10-24T04:18:34.889Z,4.38
2022-10-24T04:21:24.795Z,4.50
2022-10-24T04:24:13.672Z,3.88
2022-10-24T04:27:02.043Z,4.05
2022-10-24T04:29:50.595Z,3.92
2022-10-24T04:32:39.115Z,3.72
2022-10-24T04:35:27.538Z,3.90
2022-10-24T04:38:17.753Z,3.53
2022-10-24T04:41:09.782Z,3.97
2022-10-24T04:44:00.341Z,3.45
2022-10-24T04:46:50.698Z,3.92
2022-10-24T04:49:39.823Z,3.08
2022-10-24T04:52:28.203Z,3.25
2022-10-24T04:55:18.044Z,2.90
2022-10-24T04:58:06.897Z,3.60
2022-10-24T05:00:55.236Z,3.05
2022-10-24T05:03:43.567Z,2.80
2022-10-24T05:06:31.881Z,3.55
2022-10-24T05:09:20.275Z,3.50
2022-10-24T05:12:09.986Z,2.97
2022-10-24T05:14:58.371Z,3.10
2022-10-24T05:17:46.730Z,3.00
2022-10-24T05:20:35.179Z,3.10
2022-10-24T05:23:23.540Z,3.65
2022-10-24T05:26:11.837Z,3.72
2022-10-24T05:29:01.606Z,3.75
2022-10-24T05:31:49.936Z,3.58
2022-10-24T05:34:38.263Z,4.38
2022-10-24T05:37:26.670Z,3.38
2022-10-24T05:40:15.137Z,4.07
2022-10-24T05:43:03.461Z,3.67
2022-10-24T05:45:53.142Z,3.83
2022-10-24T05:48:41.505Z,3.80
2022-10-24T05:51:29.812Z,3.45
2022-10-24T05:54:18.313Z,3.85
2022-10-24T05:57:06.712Z,3.85
2022-10-24T05:59:55.033Z,3.40
2022-10-24T06:05:38.642Z,3.88
2022-10-24T06:08:26.931Z,3.72
2022-10-24T06:11:15.292Z,3.42
2022-10-24T06:14:03.775Z,3.30
2022-10-24T06:16:52.071Z,3.53
2022-10-24T06:19:42.178Z,3.15
2022-10-24T06:22:30.637Z,3.97
2022-10-24T06:25:19.207Z,3.40
2022-10-24T06:30:57.074Z,3.05
2022-10-24T06:33:45.479Z,3.42
2022-10-24T06:36:36.900Z,2.78
2022-10-24T06:39:26.173Z,2.97
2022-10-24T06:42:14.879Z,3.45
2022-10-24T06:45:03.190Z,3.28
2022-10-24T06:47:54.262Z,2.90
2022-10-24T06:50:43.048Z,3.45
2022-10-24T06:53:33.496Z,3.22
2022-10-24T06:56:21.850Z,3.28
2022-10-24T06:59:11.875Z,3.13
2022-10-24T07:02:03.311Z,2.87
2022-10-24T07:04:54.283Z,3.17
2022-10-24T07:07:44.341Z,3.22
2022-10-24T07:10:34.373Z,2.90
2022-10-24T07:13:22.682Z,3.17
2022-10-24T07:16:11.244Z,2.80
2022-10-24T07:18:59.605Z,3.15
2022-10-24T07:21:47.937Z,2.50
2022-10-24T07:24:36.454Z,3.35
2022-10-24T07:27:26.252Z,3.10
2022-10-24T07:30:18.797Z,2.47
2022-10-24T07:33:07.539Z,2.85
2022-10-24T07:35:56.103Z,2.97
2022-10-24T07:38:44.468Z,2.58
2022-10-24T07:41:33.553Z,3.78
2022-10-24T07:44:23.251Z,2.78
2022-10-24T07:47:12.113Z,2.50
2022-10-24T07:50:00.432Z,3.20
2022-10-24T07:52:48.780Z,2.70
2022-10-24T07:55:39.405Z,3.47
2022-10-24T07:58:27.780Z,3.00
2022-10-24T08:01:21.200Z,2.60
2022-10-24T08:04:10.417Z,2.72
2022-10-24T08:06:58.963Z,2.80
2022-10-24T08:09:51.231Z,3.15
2022-10-24T08:12:39.634Z,2.53
2022-10-24T08:15:27.958Z,3.13
2022-10-24T08:18:18.756Z,2.88
2022-10-24T08:21:10.133Z,2.67
2022-10-24T08:23:58.797Z,2.80
2022-10-24T08:26:47.316Z,2.75
2022-10-24T08:29:36.083Z,2.95
2022-10-24T08:32:24.444Z,3.08
2022-10-24T08:35:17.596Z,3.00
2022-10-24T08:38:05.917Z,2.75
2022-10-24T08:40:54.458Z,2.80
2022-10-24T08:43:42.819Z,2.42
2022-10-24T08:46:41.284Z,2.60
2022-10-24T08:49:36.424Z,2.30
2022-10-24T08:52:32.169Z,2.72
2022-10-24T08:55:37.081Z,3.58
2022-10-24T08:58:38.025Z,2.65
2022-10-24T09:01:32.102Z,3.72
2022-10-24T09:04:23.334Z,2.50
2022-10-24T09:07:17.610Z,2.40
2022-10-24T09:10:17.759Z,2.38
2022-10-24T09:13:13.747Z,2.70
2022-10-24T09:16:02.512Z,2.50
2022-10-24T09:18:53.637Z,2.72
2022-10-24T09:21:43.486Z,2.25
2022-10-24T09:24:40.255Z,2.60
2022-10-24T09:27:33.218Z,2.67
2022-10-24T09:30:28.540Z,3.13
2022-10-24T09:33:27.525Z,2.85
2022-10-24T09:36:19.059Z,2.50
2022-10-24T09:39:29.752Z,2.30
2022-10-24T09:42:22.041Z,2.72
2022-10-24T09:45:34.654Z,2.30
2022-10-24T09:48:29.361Z,2.17
2022-10-24T09:51:22.807Z,3.55
2022-10-24T09:54:27.715Z,2.20
2022-10-24T09:57:18.534Z,2.53
2022-10-24T10:03:02.030Z,3.30
2022-10-24T10:05:51.873Z,3.35
2022-10-24T10:08:40.675Z,3.05
2022-10-24T10:11:35.015Z,1.95
2022-10-24T10:14:29.789Z,1.92
2022-10-24T10:17:24.216Z,2.28
2022-10-24T10:20:25.264Z,2.20
2022-10-24T10:23:26.505Z,1.90
2022-10-24T10:26:25.436Z,2.17
2022-10-24T10:29:23.817Z,1.80
2022-10-24T10:32:20.521Z,2.03
2022-10-24T10:35:15.347Z,1.73
2022-10-24T10:38:21.009Z,1.85
2022-10-24T10:41:15.522Z,1.80
2022-10-24T10:44:27.876Z,2.58
2022-10-24T10:47:35.202Z,2.28
2022-10-24T10:50:30.204Z,1.73
2022-10-24T10:53:32.627Z,1.60
2022-10-24T10:56:32.545Z,2.33
2022-10-24T10:59:39.318Z,2.63
2022-10-24T11:02:58.913Z,2.65
2022-10-24T11:06:02.675Z,2.35
2022-10-24T11:09:24.783Z,2.40
2022-10-24T11:12:18.317Z,2.28
2022-10-24T11:15:15.968Z,2.35
2022-10-24T11:18:10.758Z,1.90
2022-10-24T11:21:03.480Z,2.53
2022-10-24T11:23:55.981Z,2.00
2022-10-24T11:26:49.989Z,1.85
2022-10-24T11:29:42.571Z,2.17
2022-10-24T11:32:38.655Z,2.33
2022-10-24T11:35:29.768Z,2.17
2022-10-24T11:38:22.531Z,1.98
2022-10-24T11:41:25.573Z,1.70
2022-10-24T11:44:26.420Z,2.42
2022-10-24T11:47:42.975Z,1.58
2022-10-24T11:50:38.866Z,1.85
2022-10-24T11:53:52.166Z,2.38
2022-10-24T11:56:45.808Z,2.22
2022-10-24T11:59:38.529Z,2.25
2022-10-24T12:03:02.797Z,1.50
2022-10-24T12:06:04.396Z,1.80
2022-10-24T12:09:07.514Z,2.13
2022-10-24T12:12:16.827Z,3.15
2022-10-24T12:15:26.243Z,1.75
2022-10-24T12:18:29.641Z,2.03
2022-10-24T12:21:25.726Z,2.38
2022-10-24T12:24:24.195Z,2.55
2022-10-24T12:27:30.138Z,2.38
2022-10-24T12:30:24.168Z,1.75
2022-10-24T12:33:25.981Z,2.53
2022-10-24T12:36:14.841Z,2.75
2022-10-24T12:39:05.639Z,2.47
2022-10-24T12:44:46.268Z,2.13
2022-10-24T12:47:45.686Z,3.50
2022-10-24T12:50:58.958Z,2.15
2022-10-24T12:54:07.004Z,2.10
2022-10-24T12:57:22.857Z,1.80
2022-10-24T13:00:26.393Z,1.70
2022-10-24T13:03:24.043Z,1.90
2022-10-24T13:06:17.740Z,2.00
2022-10-24T13:09:18.057Z,1.80
2022-10-24T13:12:17.928Z,2.58
2022-10-24T13:15:27.382Z,3.17
2022-10-24T13:18:30.577Z,2.28
2022-10-24T13:21:26.132Z,2.75
2022-10-24T13:24:25.391Z,3.20
2022-10-24T13:27:34.612Z,4.55
2022-10-24T13:30:27.723Z,4.25
2022-10-24T13:33:50.603Z,2.88
2022-10-24T13:36:38.987Z,2.92
2022-10-24T13:39:33.118Z,4.85
2022-10-24T13:42:32.972Z,4.93
2022-10-24T13:45:28.936Z,3.45
2022-10-24T13:48:19.709Z,4.35
2022-10-24T13:54:08.010Z,3.90
2022-10-24T13:56:59.733Z,2.40
2022-10-24T13:59:55.749Z,1.90
2022-10-24T14:02:44.528Z,1.17
2022-10-24T14:05:37.158Z,1.30
2022-10-24T14:08:30.158Z,1.60
2022-10-24T14:11:25.103Z,1.85
2022-10-24T14:14:26.381Z,1.65
2022-10-24T14:17:23.536Z,1.42
2022-10-24T14:20:23.281Z,1.50
2022-10-24T14:23:27.116Z,1.23
2022-10-24T14:26:19.037Z,1.42
2022-10-24T14:29:18.560Z,1.40
2022-10-24T14:32:09.147Z,1.63
2022-10-24T14:35:03.133Z,1.38
2022-10-24T14:37:52.457Z,1.70
2022-10-24T14:40:42.712Z,1.90
2022-10-24T14:43:32.300Z,1.63
2022-10-24T14:46:36.547Z,1.90
2022-10-24T14:49:33.377Z,1.50
2022-10-24T14:52:37.260Z,1.45
2022-10-24T14:55:25.863Z,1.55
2022-10-24T14:58:24.284Z,1.70
2022-10-24T15:01:18.652Z,1.40
2022-10-24T15:04:08.184Z,1.75
2022-10-24T15:06:57.856Z,1.65
2022-10-24T15:09:54.346Z,1.70
2022-10-24T15:12:48.708Z,2.42
2022-10-24T15:15:53.682Z,1.55
2022-10-24T15:18:44.182Z,1.80
2022-10-24T15:21:36.746Z,1.90
2022-10-24T15:24:27.191Z,1.92
2022-10-24T15:27:27.169Z,2.08
2022-10-24T15:30:17.899Z,1.25
2022-10-24T15:35:55.879Z,1.75
2022-10-24T15:38:44.210Z,1.60
2022-10-24T15:41:32.737Z,1.98
2022-10-24T15:44:23.598Z,1.60
2022-10-24T15:47:11.893Z,2.17
2022-10-24T15:50:01.602Z,1.83
2022-10-24T15:52:52.515Z,1.70
2022-10-24T15:55:40.964Z,2.10
2022-10-24T15:58:29.793Z,1.90
2022-10-24T16:01:25.835Z,1.83
2022-10-24T16:04:14.614Z,1.33
2022-10-24T16:07:04.375Z,1.50
2022-10-24T16:09:52.764Z,1.63
2022-10-24T16:12:41.112Z,1.70
2022-10-24T16:18:26.098Z,1.50
2022-10-24T16:21:21.111Z,1.40
2022-10-24T16:24:12.565Z,1.15
2022-10-24T16:27:00.951Z,3.42
2022-10-24T16:29:49.255Z,3.75
2022-10-24T16:32:37.626Z,2.90
2022-10-24T16:35:28.061Z,1.67
2022-10-24T16:38:16.432Z,3.10
2022-10-24T16:41:06.342Z,6.20
2022-10-24T16:43:56.003Z,3.87
2022-10-24T16:46:44.374Z,3.15
2022-10-24T16:49:33.233Z,2.83
2022-10-24T16:52:21.630Z,1.58
2022-10-24T16:55:12.779Z,1.55
2022-10-24T16:58:02.517Z,1.70
2022-10-24T17:00:51.072Z,1.95
2022-10-24T17:03:39.767Z,1.55
2022-10-24T17:06:28.071Z,1.80
2022-10-24T17:09:16.534Z,1.85
2022-10-24T17:12:05.615Z,1.73
2022-10-24T17:14:55.544Z,1.58
2022-10-24T17:17:44.336Z,1.60
2022-10-24T17:20:32.853Z,2.15
2022-10-24T17:23:22.902Z,1.70
2022-10-24T17:26:16.500Z,1.55
2022-10-24T17:29:05.776Z,1.50
2022-10-24T17:31:56.085Z,1.80
2022-10-24T17:35:05.845Z,2.08
2022-10-24T17:38:06.507Z,1.75
2022-10-24T17:40:58.984Z,1.75
2022-10-24T17:43:47.896Z,1.70
2022-10-24T17:46:37.669Z,2.10
2022-10-24T17:49:27.412Z,1.58
2022-10-24T17:52:22.323Z,1.52
2022-10-24T17:55:40.890Z,1.73
2022-10-24T17:58:28.009Z,2.38
2022-10-24T18:01:16.391Z,2.65
2022-10-24T18:04:05.287Z,3.05
2022-10-24T18:06:54.968Z,2.97
2022-10-24T18:09:43.325Z,2.22
2022-10-24T18:12:34.627Z,2.65
2022-10-24T18:15:22.994Z,3.03
2022-10-24T18:18:11.647Z,3.63
2022-10-24T18:21:07.452Z,3.20
2022-10-24T18:23:57.981Z,3.60
2022-10-24T18:26:47.911Z,4.43
2022-10-24T18:29:36.422Z,4.13
2022-10-24T18:32:25.693Z,3.50
2022-10-24T18:35:14.110Z,2.35
2022-10-24T18:38:02.504Z,2.28
2022-10-24T18:40:52.798Z,2.42
2022-10-24T18:43:41.492Z,2.38
2022-10-24T18:46:31.056Z,2.28
2022-10-24T18:49:19.902Z,2.35
2022-10-24T18:52:18.064Z,2.22
2022-10-24T18:55:14.845Z,2.38
2022-10-24T18:58:05.674Z,2.40
2022-10-24T19:03:47.073Z,2.13
2022-10-24T19:06:36.493Z,2.67
2022-10-24T19:09:26.854Z,2.40
2022-10-24T19:12:15.605Z,1.95
2022-10-24T19:15:06.125Z,2.17
2022-10-24T19:17:55.057Z,2.50
2022-10-24T19:20:43.777Z,2.50
2022-10-24T19:23:32.288Z,2.83
2022-10-24T19:26:20.682Z,3.55
2022-10-24T19:29:09.009Z,2.40
2022-10-24T19:31:59.105Z,1.98
2022-10-24T19:34:47.596Z,2.25
2022-10-24T19:37:37.073Z,1.48
2022-10-24T19:40:25.462Z,2.35
2022-10-24T19:43:14.048Z,1.75
2022-10-24T19:46:19.329Z,1.80
2022-10-24T19:49:09.828Z,1.67
2022-10-24T19:51:59.614Z,2.25
2022-10-24T19:54:47.939Z,1.88
2022-10-24T19:57:36.352Z,1.83
2022-10-24T20:00:26.104Z,1.80
2022-10-24T20:03:15.980Z,1.63
2022-10-24T20:06:06.647Z,1.58
2022-10-24T20:08:55.438Z,1.63
2022-10-24T20:11:43.810Z,1.80
2022-10-24T20:14:32.265Z,2.35
2022-10-24T20:17:20.663Z,1.67
2022-10-24T20:20:11.307Z,2.20
2022-10-24T20:23:00.960Z,2.08
2022-10-24T20:25:50.131Z,1.60
2022-10-24T20:28:43.159Z,1.73
2022-10-24T20:31:33.718Z,1.55
2022-10-24T20:34:22.049Z,1.83
2022-10-24T20:37:10.346Z,1.55
2022-10-24T20:40:00.093Z,1.77
2022-10-24T20:42:49.607Z,1.42
2022-10-24T20:45:40.782Z,1.50
2022-10-24T20:48:29.091Z,1.30
2022-10-24T20:51:19.335Z,1.42
2022-10-24T20:54:09.134Z,2.00
2022-10-24T20:56:58.848Z,1.40
2022-10-24T20:59:47.217Z,1.20
2022-10-24T21:02:36.814Z,1.77
2022-10-24T21:05:27.324Z,1.50
2022-10-24T21:08:15.681Z,2.30
2022-10-24T21:11:07.201Z,0.98
2022-10-24T21:13:58.589Z,1.10
2022-10-24T21:16:46.936Z,0.98
2022-10-24T21:19:35.282Z,1.02
2022-10-24T21:22:23.620Z,1.20
2022-10-24T21:25:11.972Z,1.48
2022-10-24T21:28:00.272Z,1.23
2022-10-24T21:30:49.935Z,1.27
2022-10-24T21:33:39.473Z,1.10
2022-10-24T21:36:27.796Z,1.73
2022-10-24T21:39:17.549Z,1.38
2022-10-24T21:42:06.197Z,0.95
2022-10-24T21:44:54.497Z,1.30
2022-10-24T21:47:44.226Z,1.90
2022-10-24T21:50:32.613Z,1.42
2022-10-24T21:53:20.948Z,2.42
2022-10-24T21:56:11.396Z,1.88
2022-10-24T22:01:55.030Z,1.60
2022-10-24T22:04:44.800Z,1.55
2022-10-24T22:07:33.152Z,1.42
2022-10-24T22:10:21.481Z,1.40
2022-10-24T22:13:09.820Z,1.50
2022-10-24T22:15:58.456Z,1.30
2022-10-24T22:18:47.121Z,1.30
2022-10-24T22:21:38.404Z,1.15
2022-10-24T22:24:26.711Z,1.35
2022-10-24T22:27:15.007Z,1.63
2022-10-24T22:30:03.351Z,1.17
2022-10-24T22:32:51.959Z,1.10
2022-10-24T22:35:40.920Z,1.25
2022-10-24T22:38:31.139Z,1.23
2022-10-24T22:41:20.051Z,1.20
2022-10-24T22:44:11.418Z,1.15
2022-10-24T22:47:37.647Z,1.50
2022-10-24T22:50:44.078Z,1.50
2022-10-24T22:53:34.452Z,1.52
2022-10-24T22:56:27.729Z,1.20
2022-10-24T22:59:16.824Z,1.42
2022-10-24T23:02:14.594Z,1.35
2022-10-24T23:05:06.705Z,1.23
2022-10-24T23:08:02.006Z,1.42
2022-10-24T23:10:52.220Z,1.50
2022-10-24T23:13:41.672Z,2.25
2022-10-24T23:16:36.915Z,2.40
2022-10-24T23:19:27.424Z,1.73
2022-10-24T23:22:22.920Z,1.15
2022-10-24T23:25:12.525Z,1.30
2022-10-24T23:28:08.763Z,1.13
2022-10-24T23:30:57.729Z,1.25
2022-10-24T23:33:46.679Z,0.90
2022-10-24T23:36:35.624Z,1.33
2022-10-24T23:39:25.128Z,0.85
2022-10-24T23:42:14.041Z,1.10
2022-10-24T23:45:04.569Z,0.90
2022-10-24T23:48:08.671Z,1.25
2022-10-24T23:51:03.777Z,1.30
2022-10-24T23:53:53.891Z,1.08
2022-10-24T23:56:42.653Z,1.20
2022-10-24T23:59:30.940Z,1.00
